createdAt,value
2022-08-23T00:00:45.540Z,61.69
2022-08-23T00:01:45.520Z,61.49
2022-08-23T00:02:45.531Z,61.69
2022-08-23T00:03:45.470Z,61.89
2022-08-23T00:05:03.678Z,61.99
2022-08-23T00:05:46.463Z,61.99
2022-08-23T00:06:45.421Z,62.19
2022-08-23T00:07:45.425Z,62.19
2022-08-23T00:08:48.676Z,62.09
2022-08-23T00:09:45.399Z,61.89
2022-08-23T00:10:45.501Z,61.69
2022-08-23T00:11:45.380Z,61.59
2022-08-23T00:12:45.371Z,61.59
2022-08-23T00:13:47.801Z,61.49
2022-08-23T00:14:45.499Z,61.40
2022-08-23T00:15:45.302Z,61.59
2022-08-23T00:16:45.344Z,61.29
2022-08-23T00:17:45.283Z,61.59
2022-08-23T00:18:49.283Z,62.09
2022-08-23T00:19:45.253Z,61.49
2022-08-23T00:20:45.251Z,61.99
2022-08-23T00:21:45.228Z,61.99
2022-08-23T00:22:45.218Z,61.89
2022-08-23T00:23:45.210Z,61.79
2022-08-23T00:24:45.196Z,62.39
2022-08-23T00:25:45.175Z,61.69
2022-08-23T00:26:45.164Z,62.09
2022-08-23T00:27:45.187Z,62.02
2022-08-23T00:28:45.145Z,62.62
2022-08-23T00:29:45.126Z,62.12
2022-08-23T00:30:45.117Z,62.62
2022-08-23T00:31:45.104Z,61.92
2022-08-23T00:32:45.086Z,62.42
2022-08-23T00:33:45.074Z,62.12
2022-08-23T00:34:45.073Z,62.22
2022-08-23T00:35:45.054Z,63.12
2022-08-23T00:36:45.036Z,63.02
2022-08-23T00:37:45.029Z,100.00
2022-08-23T00:38:46.136Z,62.62
2022-08-23T00:39:45.029Z,62.72
2022-08-23T00:40:44.986Z,100.00
2022-08-23T00:41:44.976Z,62.62
2022-08-23T00:42:44.957Z,62.62
2022-08-23T00:43:44.937Z,62.72
2022-08-23T00:44:44.927Z,62.92
2022-08-23T00:45:44.925Z,63.32
2022-08-23T00:46:44.916Z,63.53
2022-08-23T00:47:44.996Z,63.42
2022-08-23T00:48:44.887Z,100.00
2022-08-23T00:49:44.947Z,63.92
2022-08-23T00:50:44.858Z,63.65
2022-08-23T00:51:52.664Z,64.36
2022-08-23T00:52:45.827Z,64.55
2022-08-23T00:53:44.823Z,64.36
2022-08-23T00:54:44.821Z,64.75
2022-08-23T00:55:44.788Z,64.86
2022-08-23T00:56:44.788Z,65.45
2022-08-23T00:57:44.770Z,65.36
2022-08-23T00:58:44.751Z,65.48
2022-08-23T00:59:44.738Z,100.00
2022-08-23T01:00:45.127Z,65.78
2022-08-23T01:01:44.780Z,66.59
2022-08-23T01:02:44.702Z,66.78
2022-08-23T01:03:44.704Z,66.69
2022-08-23T01:04:44.683Z,67.22
2022-08-23T01:05:44.669Z,67.02
2022-08-23T01:06:44.650Z,67.32
2022-08-23T01:07:44.641Z,100.00
2022-08-23T01:08:44.621Z,66.82
2022-08-23T01:09:44.618Z,67.52
2022-08-23T01:10:44.603Z,100.00
2022-08-23T01:11:44.772Z,67.42
2022-08-23T01:12:44.572Z,67.22
2022-08-23T01:13:44.551Z,67.62
2022-08-23T01:14:44.551Z,67.72
2022-08-23T01:15:44.532Z,68.22
2022-08-23T01:16:44.525Z,66.72
2022-08-23T01:17:44.503Z,66.62
2022-08-23T01:18:44.494Z,100.00
2022-08-23T01:19:44.482Z,0.00
2022-08-23T01:20:44.473Z,66.22
2022-08-23T01:21:44.461Z,65.82
2022-08-23T01:22:44.533Z,65.78
2022-08-23T01:23:44.425Z,65.62
2022-08-23T01:25:05.972Z,65.82
2022-08-23T01:25:45.403Z,65.92
2022-08-23T01:26:44.393Z,65.52
2022-08-23T01:27:44.387Z,65.82
2022-08-23T01:28:45.817Z,65.92
2022-08-23T01:29:44.346Z,65.92
2022-08-23T01:30:44.345Z,66.02
2022-08-23T01:31:44.325Z,100.00
2022-08-23T01:32:44.314Z,66.12
2022-08-23T01:33:44.465Z,66.75
2022-08-23T01:34:44.696Z,66.65
2022-08-23T01:35:44.275Z,100.00
2022-08-23T01:36:44.265Z,0.00
2022-08-23T01:37:44.255Z,100.00
2022-08-23T01:38:44.238Z,66.45
2022-08-23T01:39:44.243Z,100.00
2022-08-23T01:40:44.213Z,0.00
2022-08-23T01:41:44.187Z,67.35
2022-08-23T01:42:44.196Z,67.58
2022-08-23T01:43:44.172Z,67.88
2022-08-23T01:44:44.577Z,67.38
2022-08-23T01:45:44.147Z,67.79
2022-08-23T01:46:44.145Z,67.58
2022-08-23T01:47:44.137Z,67.58
2022-08-23T01:48:44.107Z,67.88
2022-08-23T01:49:44.099Z,67.88
2022-08-23T01:50:44.078Z,67.79
2022-08-23T01:51:44.073Z,67.88
2022-08-23T01:52:47.007Z,67.88
2022-08-23T01:53:44.044Z,67.79
2022-08-23T01:54:44.038Z,67.58
2022-08-23T01:55:44.130Z,100.00
2022-08-23T01:56:44.009Z,100.00
2022-08-23T01:57:45.526Z,67.49
2022-08-23T01:58:43.980Z,67.69
2022-08-23T01:59:43.958Z,67.58
2022-08-23T02:00:43.954Z,67.38
2022-08-23T02:01:43.955Z,67.29
2022-08-23T02:02:43.921Z,100.00
2022-08-23T02:03:43.910Z,67.15
2022-08-23T02:04:43.910Z,67.25
2022-08-23T02:05:43.911Z,0.00
2022-08-23T02:06:43.951Z,66.95
2022-08-23T02:07:43.862Z,100.00
2022-08-23T02:08:43.842Z,66.65
2022-08-23T02:09:43.832Z,66.85
2022-08-23T02:10:43.827Z,66.65
2022-08-23T02:11:43.802Z,67.25
2022-08-23T02:12:43.803Z,66.95
2022-08-23T02:13:43.781Z,66.55
2022-08-23T02:14:43.772Z,66.65
2022-08-23T02:15:43.765Z,66.55
2022-08-23T02:16:43.752Z,66.55
2022-08-23T02:17:44.793Z,67.05
2022-08-23T02:18:43.724Z,67.05
2022-08-23T02:19:43.701Z,66.85
2022-08-23T02:20:43.683Z,67.25
2022-08-23T02:21:43.673Z,67.38
2022-08-23T02:22:43.675Z,67.49
2022-08-23T02:23:49.414Z,67.38
2022-08-23T02:24:43.633Z,0.00
2022-08-23T02:25:43.623Z,67.49
2022-08-23T02:26:46.452Z,67.69
2022-08-23T02:27:44.137Z,67.88
2022-08-23T02:28:43.654Z,68.02
2022-08-23T02:29:44.143Z,68.42
2022-08-23T02:30:43.555Z,68.72
2022-08-23T02:31:43.554Z,68.32
2022-08-23T02:32:43.537Z,68.82
2022-08-23T02:35:05.001Z,68.52
2022-08-23T02:35:55.739Z,68.22
2022-08-23T02:36:54.738Z,68.22
2022-08-23T02:37:54.722Z,68.52
2022-08-23T02:38:54.862Z,68.72
2022-08-23T02:39:54.786Z,68.22
2022-08-23T02:41:00.709Z,68.32
2022-08-23T02:41:55.662Z,68.72
2022-08-23T02:42:54.651Z,68.92
2022-08-23T02:43:54.629Z,68.52
2022-08-23T02:44:54.632Z,68.52
2022-08-23T02:45:54.618Z,68.52
2022-08-23T02:46:54.620Z,68.32
2022-08-23T02:47:54.588Z,68.22
2022-08-23T02:48:54.583Z,68.72
2022-08-23T02:49:54.955Z,68.32
2022-08-23T02:50:54.554Z,68.42
2022-08-23T02:51:54.544Z,68.52
2022-08-23T02:52:54.522Z,68.42
2022-08-23T02:53:54.532Z,68.72
2022-08-23T02:54:58.033Z,69.02
2022-08-23T02:55:54.484Z,69.15
2022-08-23T02:56:54.480Z,69.35
2022-08-23T02:57:54.454Z,69.15
2022-08-23T02:58:54.973Z,69.26
2022-08-23T02:59:54.429Z,69.46
2022-08-23T03:00:54.750Z,69.56
2022-08-23T03:01:54.441Z,69.15
2022-08-23T03:02:54.393Z,69.35
2022-08-23T03:03:54.381Z,68.95
2022-08-23T03:04:54.374Z,69.22
2022-08-23T03:05:54.361Z,68.72
2022-08-23T03:06:54.357Z,68.62
2022-08-23T03:07:54.334Z,68.92
2022-08-23T03:08:54.334Z,69.35
2022-08-23T03:09:54.297Z,68.92
2022-08-23T03:10:54.295Z,68.72
2022-08-23T03:11:54.623Z,69.12
2022-08-23T03:12:54.267Z,68.62
2022-08-23T03:13:54.246Z,68.82
2022-08-23T03:14:54.242Z,68.62
2022-08-23T03:15:54.224Z,68.42
2022-08-23T03:16:54.232Z,68.82
2022-08-23T03:17:54.194Z,68.62
2022-08-23T03:18:54.186Z,68.82
2022-08-23T03:19:54.176Z,68.52
2022-08-23T03:20:54.167Z,68.82
2022-08-23T03:21:54.146Z,68.62
2022-08-23T03:22:54.549Z,68.72
2022-08-23T03:23:54.137Z,68.52
2022-08-23T03:24:54.117Z,68.62
2022-08-23T03:25:54.098Z,68.52
2022-08-23T03:26:54.095Z,69.12
2022-08-23T03:27:54.071Z,69.12
2022-08-23T03:28:54.062Z,69.22
2022-08-23T03:29:54.038Z,69.42
2022-08-23T03:30:54.038Z,68.92
2022-08-23T03:31:54.053Z,68.92
2022-08-23T03:32:53.960Z,69.02
2022-08-23T03:33:54.011Z,68.92
2022-08-23T03:34:53.933Z,68.92
2022-08-23T03:35:53.920Z,69.42
2022-08-23T03:36:53.922Z,69.12
2022-08-23T03:37:55.309Z,69.12
2022-08-23T03:38:53.881Z,69.46
2022-08-23T03:39:53.910Z,69.76
2022-08-23T03:40:53.852Z,69.02
2022-08-23T03:41:53.840Z,0.00
2022-08-23T03:42:53.833Z,0.00
2022-08-23T03:43:53.813Z,69.12
2022-08-23T03:44:56.898Z,69.26
2022-08-23T03:45:54.795Z,69.35
2022-08-23T03:46:53.791Z,69.06
2022-08-23T03:47:53.764Z,68.95
2022-08-23T03:48:53.752Z,69.26
2022-08-23T03:49:53.735Z,69.15
2022-08-23T03:50:54.640Z,69.26
2022-08-23T03:51:53.715Z,69.46
2022-08-23T03:52:53.704Z,69.66
2022-08-23T03:53:53.764Z,70.19
2022-08-23T03:54:53.674Z,69.99
2022-08-23T03:55:53.965Z,70.39
2022-08-23T03:56:53.656Z,70.53
2022-08-23T03:57:53.632Z,70.43
2022-08-23T03:58:53.614Z,70.63
2022-08-23T03:59:53.595Z,70.63
2022-08-23T04:00:53.603Z,70.83
2022-08-23T04:01:53.656Z,70.93
2022-08-23T04:02:53.570Z,71.03
2022-08-23T04:03:53.557Z,71.47
2022-08-23T04:04:53.556Z,71.26
2022-08-23T04:05:53.530Z,71.36
2022-08-23T04:06:53.708Z,71.16
2022-08-23T04:07:53.496Z,71.67
2022-08-23T04:08:53.496Z,71.77
2022-08-23T04:09:55.378Z,71.56
2022-08-23T04:10:53.474Z,71.87
2022-08-23T04:11:53.446Z,72.17
2022-08-23T04:12:53.437Z,71.77
2022-08-23T04:13:53.426Z,72.20
2022-08-23T04:14:53.417Z,72.20
2022-08-23T04:15:53.395Z,72.41
2022-08-23T04:16:53.397Z,71.97
2022-08-23T04:17:53.507Z,72.07
2022-08-23T04:18:53.369Z,72.17
2022-08-23T04:19:53.348Z,72.47
2022-08-23T04:20:53.340Z,72.30
2022-08-23T04:21:53.318Z,72.10
2022-08-23T04:22:53.309Z,72.10
2022-08-23T04:23:54.099Z,71.87
2022-08-23T04:24:53.289Z,71.97
2022-08-23T04:25:53.267Z,72.17
2022-08-23T04:26:53.267Z,71.26
2022-08-23T04:27:53.239Z,71.26
2022-08-23T04:28:53.308Z,71.16
2022-08-23T04:29:53.209Z,71.56
2022-08-23T04:30:53.199Z,71.36
2022-08-23T04:31:53.190Z,71.47
2022-08-23T04:32:53.181Z,71.47
2022-08-23T04:33:53.180Z,71.56
2022-08-23T04:34:53.152Z,71.67
2022-08-23T04:35:53.140Z,71.97
2022-08-23T04:36:55.487Z,71.56
2022-08-23T04:37:53.111Z,71.67
2022-08-23T04:38:53.106Z,70.93
2022-08-23T04:39:53.843Z,70.93
2022-08-23T04:40:53.079Z,70.63
2022-08-23T04:41:53.064Z,70.43
2022-08-23T04:42:53.049Z,70.93
2022-08-23T04:43:53.045Z,70.29
2022-08-23T04:44:53.040Z,70.29
2022-08-23T04:45:53.001Z,70.70
2022-08-23T04:46:53.002Z,70.79
2022-08-23T04:47:52.992Z,70.79
2022-08-23T04:48:52.972Z,70.89
2022-08-23T04:49:52.961Z,70.39
2022-08-23T04:50:53.272Z,70.09
2022-08-23T04:51:54.052Z,70.09
2022-08-23T04:52:52.922Z,70.19
2022-08-23T04:53:52.923Z,70.70
2022-08-23T04:54:52.902Z,70.79
2022-08-23T04:55:52.874Z,70.39
2022-08-23T04:56:52.883Z,70.39
2022-08-23T04:57:52.844Z,70.29
2022-08-23T04:58:52.849Z,69.99
2022-08-23T04:59:52.826Z,70.89
2022-08-23T05:00:52.876Z,70.39
2022-08-23T05:01:52.904Z,70.89
2022-08-23T05:02:52.784Z,70.79
2022-08-23T05:03:52.774Z,70.70
2022-08-23T05:04:52.766Z,70.59
2022-08-23T05:05:52.745Z,70.09
2022-08-23T05:06:52.743Z,69.99
2022-08-23T05:07:52.716Z,69.79
2022-08-23T05:08:52.715Z,70.09
2022-08-23T05:09:52.699Z,69.89
2022-08-23T05:10:52.699Z,70.19
2022-08-23T05:11:52.665Z,69.89
2022-08-23T05:12:53.026Z,69.69
2022-08-23T05:13:52.645Z,70.50
2022-08-23T05:14:52.635Z,69.99
2022-08-23T05:15:52.710Z,70.50
2022-08-23T05:16:52.616Z,70.50
2022-08-23T05:17:52.588Z,70.39
2022-08-23T05:18:52.588Z,70.70
2022-08-23T05:19:52.568Z,70.89
2022-08-23T05:20:52.567Z,70.89
2022-08-23T05:21:56.448Z,71.20
2022-08-23T05:22:52.539Z,70.70
2022-08-23T05:23:54.809Z,70.50
2022-08-23T05:24:52.507Z,71.30
2022-08-23T05:25:53.246Z,71.20
2022-08-23T05:26:52.489Z,71.00
2022-08-23T05:27:52.459Z,70.79
2022-08-23T05:28:52.468Z,70.89
2022-08-23T05:29:52.438Z,70.59
2022-08-23T05:30:56.676Z,70.70
2022-08-23T05:31:52.416Z,70.70
2022-08-23T05:32:52.399Z,71.09
2022-08-23T05:33:52.391Z,70.89
2022-08-23T05:34:52.462Z,70.66
2022-08-23T05:35:52.372Z,70.26
2022-08-23T05:36:55.273Z,70.56
2022-08-23T05:37:52.340Z,100.00
2022-08-23T05:38:52.349Z,70.96
2022-08-23T05:39:52.358Z,71.26
2022-08-23T05:40:55.008Z,71.36
2022-08-23T05:41:52.282Z,70.96
2022-08-23T05:42:52.270Z,71.06
2022-08-23T05:43:52.251Z,70.86
2022-08-23T05:44:52.262Z,71.97
2022-08-23T05:45:52.295Z,100.00
2022-08-23T05:46:52.252Z,69.85
2022-08-23T05:47:52.201Z,100.00
2022-08-23T05:48:52.194Z,70.43
2022-08-23T05:49:52.184Z,70.73
2022-08-23T05:50:52.165Z,70.12
2022-08-23T05:51:52.153Z,70.12
2022-08-23T05:52:52.165Z,70.12
2022-08-23T05:53:52.131Z,69.62
2022-08-23T05:54:52.123Z,69.32
2022-08-23T05:55:52.102Z,70.03
2022-08-23T05:56:52.185Z,69.62
2022-08-23T05:57:52.072Z,69.22
2022-08-23T05:58:52.166Z,69.32
2022-08-23T05:59:52.043Z,69.53
2022-08-23T06:00:52.101Z,69.53
2022-08-23T06:01:52.021Z,70.63
2022-08-23T06:02:52.021Z,70.19
2022-08-23T06:03:51.995Z,69.69
2022-08-23T06:04:56.767Z,69.29
2022-08-23T06:05:52.967Z,100.00
2022-08-23T06:06:51.968Z,100.00
2022-08-23T06:07:52.023Z,0.00
2022-08-23T06:08:51.935Z,0.00
2022-08-23T06:09:51.924Z,69.26
2022-08-23T06:10:51.916Z,68.55
2022-08-23T06:11:51.907Z,68.96
2022-08-23T06:12:51.885Z,100.00
2022-08-23T06:13:51.931Z,69.46
2022-08-23T06:14:51.856Z,0.00
2022-08-23T06:15:51.840Z,70.03
2022-08-23T06:16:55.836Z,71.03
2022-08-23T06:17:51.826Z,69.73
2022-08-23T06:18:51.879Z,70.23
2022-08-23T06:19:51.786Z,0.00
2022-08-23T06:20:51.830Z,69.93
2022-08-23T06:21:51.770Z,69.93
2022-08-23T06:22:51.758Z,68.52
2022-08-23T06:23:51.751Z,68.52
2022-08-23T06:24:51.729Z,68.39
2022-08-23T06:25:51.719Z,67.79
2022-08-23T06:26:51.697Z,67.59
2022-08-23T06:27:51.690Z,100.00
2022-08-23T06:28:51.702Z,68.19
2022-08-23T06:29:51.960Z,68.66
2022-08-23T06:30:51.700Z,67.96
2022-08-23T06:31:51.657Z,67.76
2022-08-23T06:32:51.664Z,67.66
2022-08-23T06:33:51.665Z,67.66
2022-08-23T06:34:51.598Z,67.86
2022-08-23T06:35:52.588Z,67.76
2022-08-23T06:36:51.562Z,67.93
2022-08-23T06:37:51.569Z,67.52
2022-08-23T06:38:51.549Z,67.72
2022-08-23T06:39:51.543Z,67.63
2022-08-23T06:40:54.669Z,67.13
2022-08-23T06:41:51.514Z,67.22
2022-08-23T06:42:51.482Z,68.09
2022-08-23T06:43:51.482Z,66.99
2022-08-23T06:44:51.471Z,66.69
2022-08-23T06:45:55.061Z,65.89
2022-08-23T06:46:52.554Z,65.69
2022-08-23T06:47:51.432Z,66.16
2022-08-23T06:48:51.423Z,66.16
2022-08-23T06:49:57.904Z,65.56
2022-08-23T06:50:52.383Z,65.66
2022-08-23T06:51:52.349Z,65.06
2022-08-23T06:52:51.365Z,64.66
2022-08-23T06:53:51.362Z,64.93
2022-08-23T06:54:51.352Z,65.23
2022-08-23T06:55:51.333Z,65.23
2022-08-23T06:56:51.312Z,65.20
2022-08-23T06:57:51.307Z,64.40
2022-08-23T06:58:51.281Z,65.00
2022-08-23T06:59:51.284Z,64.20
2022-08-23T07:00:54.279Z,100.00
2022-08-23T07:01:52.341Z,63.97
2022-08-23T07:02:51.285Z,62.48
2022-08-23T07:03:51.224Z,63.47
2022-08-23T07:04:51.215Z,63.37
2022-08-23T07:05:51.193Z,0.00
2022-08-23T07:06:51.182Z,63.14
2022-08-23T07:07:51.184Z,63.14
2022-08-23T07:08:51.155Z,63.04
2022-08-23T07:09:51.147Z,62.91
2022-08-23T07:10:51.136Z,100.00
2022-08-23T07:11:51.114Z,62.41
2022-08-23T07:12:51.434Z,61.52
2022-08-23T07:13:51.096Z,100.00
2022-08-23T07:14:51.076Z,60.59
2022-08-23T07:15:51.098Z,59.22
2022-08-23T07:16:51.057Z,60.19
2022-08-23T07:17:51.049Z,60.69
2022-08-23T07:18:51.026Z,59.69
2022-08-23T07:19:51.016Z,59.79
2022-08-23T07:20:51.007Z,59.39
2022-08-23T07:21:50.988Z,100.00
2022-08-23T07:22:50.978Z,100.00
2022-08-23T07:23:51.097Z,100.00
2022-08-23T07:24:50.949Z,100.00
2022-08-23T07:25:50.939Z,60.16
2022-08-23T07:26:50.929Z,100.00
2022-08-23T07:27:50.928Z,100.00
2022-08-23T07:28:50.909Z,59.86
2022-08-23T07:29:50.888Z,0.00
2022-08-23T07:30:50.872Z,59.86
2022-08-23T07:31:50.934Z,100.00
2022-08-23T07:32:50.840Z,100.00
2022-08-23T07:33:50.850Z,100.00
2022-08-23T07:34:53.969Z,59.34
2022-08-23T07:35:50.822Z,58.64
2022-08-23T07:36:50.801Z,58.64
2022-08-23T07:37:50.791Z,0.00
2022-08-23T07:38:51.761Z,58.64
2022-08-23T07:39:50.823Z,58.34
2022-08-23T07:40:54.084Z,0.00
2022-08-23T07:41:50.741Z,0.00
2022-08-23T07:42:50.711Z,58.11
2022-08-23T07:43:50.710Z,0.00
2022-08-23T07:44:51.715Z,100.00
2022-08-23T07:45:51.685Z,57.62
2022-08-23T07:46:50.728Z,100.00
2022-08-23T07:47:50.806Z,58.39
2022-08-23T07:48:54.372Z,0.00
2022-08-23T07:49:50.631Z,0.00
2022-08-23T07:50:55.990Z,56.77
2022-08-23T07:51:52.098Z,100.00
2022-08-23T07:52:50.595Z,57.66
2022-08-23T07:53:50.584Z,100.00
2022-08-23T07:54:50.575Z,56.49
2022-08-23T07:55:50.559Z,100.00
2022-08-23T07:56:50.766Z,100.00
2022-08-23T07:57:50.538Z,56.89
2022-08-23T07:58:50.512Z,56.70
2022-08-23T07:59:50.503Z,0.00
2022-08-23T08:00:50.487Z,56.47
2022-08-23T08:01:50.551Z,100.00
2022-08-23T08:02:50.520Z,0.00
2022-08-23T08:03:50.454Z,0.00
2022-08-23T08:04:50.438Z,0.00
2022-08-23T08:05:50.448Z,0.00
2022-08-23T08:07:10.463Z,0.00
2022-08-23T08:07:51.485Z,0.00
2022-08-23T08:08:50.392Z,0.00
2022-08-23T08:09:50.378Z,0.00
2022-08-23T08:10:50.367Z,56.02
2022-08-23T08:11:50.348Z,100.00
2022-08-23T08:12:50.328Z,100.00
2022-08-23T08:13:50.332Z,100.00
2022-08-23T08:14:50.310Z,0.00
2022-08-23T08:15:50.330Z,100.00
2022-08-23T08:16:50.288Z,100.00
2022-08-23T08:17:50.269Z,100.00
2022-08-23T08:18:50.329Z,100.00
2022-08-23T08:19:50.259Z,100.00
2022-08-23T08:20:50.258Z,100.00
2022-08-23T08:21:51.314Z,100.00
2022-08-23T08:22:58.603Z,100.00
2022-08-23T08:23:51.199Z,54.80
2022-08-23T08:24:50.189Z,100.00
2022-08-23T08:25:50.180Z,55.19
2022-08-23T08:26:50.164Z,100.00
2022-08-23T08:27:50.152Z,55.36
2022-08-23T08:28:50.130Z,54.47
2022-08-23T08:29:50.431Z,100.00
2022-08-23T08:30:50.101Z,54.97
2022-08-23T08:31:54.006Z,100.00
2022-08-23T08:32:50.101Z,0.00
2022-08-23T08:33:50.063Z,54.30
2022-08-23T08:34:50.084Z,100.00
2022-08-23T08:35:59.223Z,100.00
2022-08-23T08:36:51.028Z,100.00
2022-08-23T08:37:50.015Z,100.00
2022-08-23T08:38:51.756Z,100.00
2022-08-23T08:39:50.021Z,100.00
2022-08-23T08:40:50.276Z,54.68
2022-08-23T08:41:58.776Z,100.00
2022-08-23T08:42:50.947Z,100.00
2022-08-23T08:43:49.941Z,54.64
2022-08-23T08:44:49.931Z,100.00
2022-08-23T08:45:58.871Z,100.00
2022-08-23T08:46:50.951Z,0.00
2022-08-23T08:47:49.899Z,0.00
2022-08-23T08:48:49.882Z,0.00
2022-08-23T08:49:49.871Z,0.00
2022-08-23T08:50:49.852Z,0.00
2022-08-23T08:51:49.907Z,0.00
2022-08-23T08:52:49.819Z,0.00
2022-08-23T08:53:49.825Z,0.00
2022-08-23T08:54:49.796Z,0.00
2022-08-23T08:55:49.787Z,0.00
2022-08-23T08:56:49.777Z,0.00
2022-08-23T08:57:49.769Z,0.00
2022-08-23T08:58:49.748Z,0.00
2022-08-23T08:59:49.739Z,0.00
2022-08-23T09:00:53.845Z,0.00
2022-08-23T09:01:50.845Z,52.46
2022-08-23T09:02:50.420Z,51.99
2022-08-23T09:03:50.949Z,100.00
2022-08-23T09:04:49.680Z,100.00
2022-08-23T09:05:49.673Z,0.00
2022-08-23T09:06:49.650Z,100.00
2022-08-23T09:07:49.633Z,100.00
2022-08-23T09:08:49.631Z,53.03
2022-08-23T09:09:49.613Z,100.00
2022-08-23T09:10:49.593Z,52.96
2022-08-23T09:11:49.580Z,100.00
2022-08-23T09:12:49.896Z,100.00
2022-08-23T09:13:49.561Z,100.00
2022-08-23T09:14:49.554Z,100.00
2022-08-23T09:15:49.626Z,100.00
2022-08-23T09:16:49.512Z,100.00
2022-08-23T09:17:49.516Z,100.00
2022-08-23T09:18:49.494Z,100.00
2022-08-23T09:19:49.487Z,100.00
2022-08-23T09:20:49.463Z,0.00
2022-08-23T09:21:49.465Z,100.00
2022-08-23T09:22:49.442Z,100.00
2022-08-23T09:23:57.141Z,0.00
2022-08-23T09:24:50.414Z,100.00
2022-08-23T09:25:49.408Z,100.00
2022-08-23T09:26:49.394Z,100.00
2022-08-23T09:27:49.386Z,0.00
2022-08-23T09:28:49.365Z,100.00
2022-08-23T09:29:50.118Z,100.00
2022-08-23T09:30:49.366Z,100.00
2022-08-23T09:31:49.399Z,100.00
2022-08-23T09:32:49.316Z,100.00
2022-08-23T09:33:49.319Z,100.00
2022-08-23T09:34:49.608Z,100.00
2022-08-23T09:35:49.277Z,51.70
2022-08-23T09:36:50.073Z,51.20
2022-08-23T09:37:49.247Z,100.00
2022-08-23T09:38:49.237Z,100.00
2022-08-23T09:39:49.262Z,100.00
2022-08-23T09:40:49.209Z,100.00
2022-08-23T09:41:49.209Z,51.32
2022-08-23T09:42:49.200Z,100.00
2022-08-23T09:43:49.184Z,51.50
2022-08-23T09:44:49.159Z,100.00
2022-08-23T09:45:49.229Z,0.00
2022-08-23T09:46:49.140Z,100.00
2022-08-23T09:47:49.131Z,100.00
2022-08-23T09:48:49.121Z,48.71
2022-08-23T09:49:49.103Z,0.00
2022-08-23T09:50:49.080Z,0.00
2022-08-23T09:51:49.081Z,0.00
2022-08-23T09:52:49.059Z,0.00
2022-08-23T09:53:49.069Z,0.00
2022-08-23T09:54:49.031Z,0.00
2022-08-23T09:55:49.021Z,0.00
2022-08-23T09:56:49.098Z,0.00
2022-08-23T09:57:48.993Z,0.00
2022-08-23T09:58:48.991Z,0.00
2022-08-23T09:59:48.975Z,0.00
2022-08-23T10:00:48.955Z,0.00
2022-08-23T10:01:49.001Z,0.00
2022-08-23T10:02:48.937Z,0.00
2022-08-23T10:03:48.924Z,0.00
2022-08-23T10:04:48.981Z,0.00
2022-08-23T10:05:48.896Z,0.00
2022-08-23T10:06:48.887Z,0.00
2022-08-23T10:07:49.014Z,0.00
2022-08-23T10:08:48.864Z,0.00
2022-08-23T10:09:48.845Z,0.00
2022-08-23T10:10:51.046Z,0.00
2022-08-23T10:11:48.827Z,0.00
2022-08-23T10:12:49.430Z,0.00
2022-08-23T10:13:48.799Z,0.00
2022-08-23T10:14:48.779Z,0.00
2022-08-23T10:15:48.812Z,0.00
2022-08-23T10:16:48.787Z,0.00
2022-08-23T10:17:48.747Z,0.00
2022-08-23T10:18:48.860Z,0.00
2022-08-23T10:19:48.728Z,0.00
2022-08-23T10:20:48.709Z,0.00
2022-08-23T10:21:48.699Z,0.00
2022-08-23T10:22:48.696Z,0.00
2022-08-23T10:23:48.679Z,0.00
2022-08-23T10:24:48.661Z,0.00
2022-08-23T10:25:48.651Z,0.00
2022-08-23T10:26:48.648Z,0.00
2022-08-23T10:27:48.632Z,0.00
2022-08-23T10:28:48.612Z,0.00
2022-08-23T10:29:48.966Z,0.00
2022-08-23T10:30:48.637Z,0.00
2022-08-23T10:31:48.584Z,0.00
2022-08-23T10:32:48.564Z,0.00
2022-08-23T10:33:48.563Z,0.00
2022-08-23T10:34:50.737Z,0.00
2022-08-23T10:35:48.534Z,0.00
2022-08-23T10:36:51.015Z,0.00
2022-08-23T10:37:48.514Z,0.00
2022-08-23T10:38:48.529Z,0.00
2022-08-23T10:39:48.536Z,0.00
2022-08-23T10:40:48.554Z,0.00
2022-08-23T10:41:48.475Z,0.00
2022-08-23T10:42:48.456Z,0.00
2022-08-23T10:43:48.437Z,0.00
2022-08-23T10:44:48.434Z,0.00
2022-08-23T10:45:48.425Z,0.00
2022-08-23T10:46:48.431Z,0.00
2022-08-23T10:47:48.395Z,0.00
2022-08-23T10:48:48.389Z,0.00
2022-08-23T10:49:48.377Z,0.00
2022-08-23T10:50:55.947Z,0.00
2022-08-23T10:51:51.841Z,0.00
2022-08-23T10:52:48.350Z,0.00
2022-08-23T10:53:48.336Z,0.00
2022-08-23T10:54:48.321Z,0.00
2022-08-23T10:55:48.298Z,0.00
2022-08-23T10:56:48.730Z,0.00
2022-08-23T10:57:48.270Z,0.00
2022-08-23T10:58:48.268Z,0.00
2022-08-23T10:59:48.264Z,0.00
2022-08-23T11:00:48.258Z,0.00
2022-08-23T11:01:48.280Z,0.00
2022-08-23T11:02:48.334Z,0.00
2022-08-23T11:03:48.222Z,0.00
2022-08-23T11:04:48.202Z,0.00
2022-08-23T11:05:48.191Z,0.00
2022-08-23T11:06:48.183Z,0.00
2022-08-23T11:07:48.167Z,0.00
2022-08-23T11:08:48.239Z,0.00
2022-08-23T11:09:48.156Z,0.00
2022-08-23T11:10:56.499Z,0.00
2022-08-23T11:11:49.141Z,0.00
2022-08-23T11:12:48.126Z,0.00
2022-08-23T11:13:48.175Z,0.00
2022-08-23T11:14:48.098Z,0.00
2022-08-23T11:15:48.161Z,0.00
2022-08-23T11:16:48.076Z,0.00
2022-08-23T11:17:48.056Z,0.00
2022-08-23T11:18:48.062Z,0.00
2022-08-23T11:19:48.033Z,0.00
2022-08-23T11:20:48.027Z,0.00
2022-08-23T11:21:48.007Z,0.00
2022-08-23T11:22:48.013Z,0.00
2022-08-23T11:23:47.996Z,0.00
2022-08-23T11:24:48.301Z,0.00
2022-08-23T11:25:47.959Z,0.00
2022-08-23T11:26:47.958Z,0.00
2022-08-23T11:27:47.949Z,0.00
2022-08-23T11:28:47.938Z,0.00
2022-08-23T11:29:47.921Z,0.00
2022-08-23T11:30:47.942Z,0.00
2022-08-23T11:31:47.889Z,0.00
2022-08-23T11:32:47.889Z,0.00
2022-08-23T11:33:47.870Z,0.00
2022-08-23T11:34:47.881Z,0.00
2022-08-23T11:35:47.931Z,0.00
2022-08-23T11:36:47.847Z,0.00
2022-08-23T11:37:47.837Z,0.00
2022-08-23T11:38:47.836Z,0.00
2022-08-23T11:39:47.856Z,0.00
2022-08-23T11:40:47.799Z,0.00
2022-08-23T11:41:47.785Z,0.00
2022-08-23T11:42:47.782Z,0.00
2022-08-23T11:43:47.766Z,0.00
2022-08-23T11:44:47.755Z,0.00
2022-08-23T11:45:47.770Z,0.00
2022-08-23T11:46:48.484Z,0.00
2022-08-23T11:47:47.712Z,0.00
2022-08-23T11:48:47.704Z,0.00
2022-08-23T11:49:48.646Z,0.00
2022-08-23T11:50:47.687Z,0.00
2022-08-23T11:51:47.672Z,0.00
2022-08-23T11:52:47.671Z,0.00
2022-08-23T11:53:47.659Z,0.00
2022-08-23T11:54:47.637Z,0.00
2022-08-23T11:55:47.617Z,0.00
2022-08-23T11:56:47.617Z,0.00
2022-08-23T11:57:48.518Z,0.00
2022-08-23T11:58:47.589Z,0.00
2022-08-23T11:59:47.570Z,0.00
2022-08-23T12:00:47.569Z,0.00
2022-08-23T12:01:47.557Z,0.00
2022-08-23T12:02:47.733Z,0.00
2022-08-23T12:03:47.665Z,0.00
2022-08-23T12:04:47.522Z,0.00
2022-08-23T12:05:47.509Z,0.00
2022-08-23T12:06:51.267Z,0.00
2022-08-23T12:07:47.495Z,0.00
2022-08-23T12:08:47.681Z,0.00
2022-08-23T12:09:47.466Z,0.00
2022-08-23T12:10:47.453Z,0.00
2022-08-23T12:11:47.451Z,0.00
2022-08-23T12:12:47.559Z,0.00
2022-08-23T12:13:47.414Z,0.00
2022-08-23T12:14:47.415Z,0.00
2022-08-23T12:15:47.474Z,0.00
2022-08-23T12:16:49.921Z,0.00
2022-08-23T12:17:47.366Z,0.00
2022-08-23T12:18:47.811Z,0.00
2022-08-23T12:19:47.403Z,0.00
2022-08-23T12:20:48.476Z,0.00
2022-08-23T12:21:47.335Z,0.00
2022-08-23T12:22:47.325Z,0.00
2022-08-23T12:23:47.938Z,0.00
2022-08-23T12:24:47.286Z,0.00
2022-08-23T12:25:47.274Z,0.00
2022-08-23T12:26:47.275Z,0.00
2022-08-23T12:27:47.248Z,0.00
2022-08-23T12:28:48.174Z,0.00
2022-08-23T12:29:47.225Z,0.00
2022-08-23T12:30:47.316Z,0.00
2022-08-23T12:31:47.307Z,0.00
2022-08-23T12:32:47.206Z,0.00
2022-08-23T12:33:47.178Z,0.00
2022-08-23T12:34:47.293Z,0.00
2022-08-23T12:35:47.168Z,0.00
2022-08-23T12:36:47.155Z,0.00
2022-08-23T12:37:47.141Z,0.00
2022-08-23T12:38:47.138Z,0.00
2022-08-23T12:39:47.168Z,0.00
2022-08-23T12:40:47.120Z,0.00
2022-08-23T12:41:47.378Z,0.00
2022-08-23T12:42:47.088Z,0.00
2022-08-23T12:43:47.081Z,0.00
2022-08-23T12:44:47.080Z,0.00
2022-08-23T12:45:47.099Z,0.00
2022-08-23T12:46:47.113Z,0.00
2022-08-23T12:47:47.032Z,0.00
2022-08-23T12:48:47.036Z,0.00
2022-08-23T12:49:47.018Z,0.00
2022-08-23T12:50:47.011Z,0.00
2022-08-23T12:51:47.010Z,0.00
2022-08-23T12:52:47.069Z,0.00
2022-08-23T12:53:46.983Z,0.00
2022-08-23T12:54:46.970Z,0.00
2022-08-23T12:55:46.943Z,0.00
2022-08-23T12:56:46.943Z,0.00
2022-08-23T12:57:46.922Z,0.00
2022-08-23T12:58:46.914Z,0.00